sensor_id;sensor_type;location;lat;lon;timestamp;P1;durP1;ratioP1;P2;durP2;ratioP2
21339;SDS011;10828;47.064;15.422;2022-08-25T00:01:19;10.27;;;5.23;;
21339;SDS011;10828;47.064;15.422;2022-08-25T00:03:45;9.40;;;5.53;;
21339;SDS011;10828;47.064;15.422;2022-08-25T00:06:12;8.67;;;5.27;;
21339;SDS011;10828;47.064;15.422;2022-08-25T00:08:38;12.80;;;6.03;;
21339;SDS011;10828;47.064;15.422;2022-08-25T00:11:10;10.77;;;5.90;;
21339;SDS011;10828;47.064;15.422;2022-08-25T00:13:38;9.57;;;5.57;;
21339;SDS011;10828;47.064;15.422;2022-08-25T00:16:05;9.97;;;6.00;;
21339;SDS011;10828;47.064;15.422;2022-08-25T00:18:32;10.93;;;5.90;;
21339;SDS011;10828;47.064;15.422;2022-08-25T00:20:59;11.00;;;5.67;;
21339;SDS011;10828;47.064;15.422;2022-08-25T00:23:25;9.47;;;5.70;;
21339;SDS011;10828;47.064;15.422;2022-08-25T00:25:51;9.60;;;5.60;;
21339;SDS011;10828;47.064;15.422;2022-08-25T00:28:17;8.83;;;5.57;;
21339;SDS011;10828;47.064;15.422;2022-08-25T00:30:46;9.47;;;5.90;;
21339;SDS011;10828;47.064;15.422;2022-08-25T00:33:13;9.53;;;5.60;;
21339;SDS011;10828;47.064;15.422;2022-08-25T00:35:40;11.50;;;5.77;;
21339;SDS011;10828;47.064;15.422;2022-08-25T00:38:16;13.27;;;5.50;;
21339;SDS011;10828;47.064;15.422;2022-08-25T00:40:42;9.37;;;5.23;;
21339;SDS011;10828;47.064;15.422;2022-08-25T00:43:09;10.83;;;5.90;;
21339;SDS011;10828;47.064;15.422;2022-08-25T00:45:35;8.77;;;5.23;;
21339;SDS011;10828;47.064;15.422;2022-08-25T00:48:01;10.37;;;5.10;;
21339;SDS011;10828;47.064;15.422;2022-08-25T00:50:28;11.40;;;4.90;;
21339;SDS011;10828;47.064;15.422;2022-08-25T00:53:02;11.30;;;5.60;;
21339;SDS011;10828;47.064;15.422;2022-08-25T00:55:36;11.40;;;5.57;;
21339;SDS011;10828;47.064;15.422;2022-08-25T00:58:08;8.80;;;5.17;;
21339;SDS011;10828;47.064;15.422;2022-08-25T01:00:39;8.00;;;4.83;;
21339;SDS011;10828;47.064;15.422;2022-08-25T01:03:06;12.53;;;5.47;;
21339;SDS011;10828;47.064;15.422;2022-08-25T01:05:33;7.37;;;4.80;;
21339;SDS011;10828;47.064;15.422;2022-08-25T01:07:59;13.47;;;4.90;;
21339;SDS011;10828;47.064;15.422;2022-08-25T01:10:30;8.90;;;4.97;;
21339;SDS011;10828;47.064;15.422;2022-08-25T01:13:16;9.30;;;5.10;;
21339;SDS011;10828;47.064;15.422;2022-08-25T01:15:44;10.27;;;5.23;;
21339;SDS011;10828;47.064;15.422;2022-08-25T01:18:11;11.00;;;5.43;;
21339;SDS011;10828;47.064;15.422;2022-08-25T01:20:37;9.80;;;5.07;;
21339;SDS011;10828;47.064;15.422;2022-08-25T01:23:03;11.23;;;5.23;;
21339;SDS011;10828;47.064;15.422;2022-08-25T01:28:14;10.90;;;5.20;;
21339;SDS011;10828;47.064;15.422;2022-08-25T01:30:43;10.40;;;5.50;;
21339;SDS011;10828;47.064;15.422;2022-08-25T01:33:09;11.73;;;5.73;;
21339;SDS011;10828;47.064;15.422;2022-08-25T01:35:38;13.60;;;5.90;;
21339;SDS011;10828;47.064;15.422;2022-08-25T01:38:04;15.57;;;6.40;;
21339;SDS011;10828;47.064;15.422;2022-08-25T01:40:42;13.13;;;6.47;;
21339;SDS011;10828;47.064;15.422;2022-08-25T01:43:20;24.27;;;6.00;;
21339;SDS011;10828;47.064;15.422;2022-08-25T01:45:50;14.90;;;6.17;;
21339;SDS011;10828;47.064;15.422;2022-08-25T01:48:17;11.60;;;6.00;;
21339;SDS011;10828;47.064;15.422;2022-08-25T01:50:43;20.97;;;6.70;;
21339;SDS011;10828;47.064;15.422;2022-08-25T01:53:17;15.10;;;6.47;;
21339;SDS011;10828;47.064;15.422;2022-08-25T01:55:43;12.47;;;6.27;;
21339;SDS011;10828;47.064;15.422;2022-08-25T01:58:25;14.13;;;6.53;;
21339;SDS011;10828;47.064;15.422;2022-08-25T02:00:55;13.20;;;6.93;;
21339;SDS011;10828;47.064;15.422;2022-08-25T02:03:22;12.87;;;6.23;;
21339;SDS011;10828;47.064;15.422;2022-08-25T02:05:49;12.67;;;5.83;;
21339;SDS011;10828;47.064;15.422;2022-08-25T02:08:15;11.37;;;6.30;;
21339;SDS011;10828;47.064;15.422;2022-08-25T02:10:41;11.23;;;6.17;;
21339;SDS011;10828;47.064;15.422;2022-08-25T02:13:07;14.83;;;5.73;;
21339;SDS011;10828;47.064;15.422;2022-08-25T02:15:33;10.20;;;5.63;;
21339;SDS011;10828;47.064;15.422;2022-08-25T02:18:01;14.93;;;5.83;;
21339;SDS011;10828;47.064;15.422;2022-08-25T02:20:33;11.23;;;5.17;;
21339;SDS011;10828;47.064;15.422;2022-08-25T02:22:59;8.93;;;5.40;;
21339;SDS011;10828;47.064;15.422;2022-08-25T02:25:25;11.67;;;5.60;;
21339;SDS011;10828;47.064;15.422;2022-08-25T02:27:51;10.13;;;5.27;;
21339;SDS011;10828;47.064;15.422;2022-08-25T02:30:17;11.60;;;5.07;;
21339;SDS011;10828;47.064;15.422;2022-08-25T02:32:43;10.13;;;5.47;;
21339;SDS011;10828;47.064;15.422;2022-08-25T02:35:09;12.97;;;5.67;;
21339;SDS011;10828;47.064;15.422;2022-08-25T02:37:35;24.57;;;6.77;;
21339;SDS011;10828;47.064;15.422;2022-08-25T02:40:02;10.83;;;6.53;;
21339;SDS011;10828;47.064;15.422;2022-08-25T02:42:28;12.13;;;5.63;;
21339;SDS011;10828;47.064;15.422;2022-08-25T02:44:54;12.53;;;6.87;;
21339;SDS011;10828;47.064;15.422;2022-08-25T02:47:21;11.80;;;5.70;;
21339;SDS011;10828;47.064;15.422;2022-08-25T02:49:47;11.37;;;6.50;;
21339;SDS011;10828;47.064;15.422;2022-08-25T02:52:13;14.03;;;6.53;;
21339;SDS011;10828;47.064;15.422;2022-08-25T02:54:40;12.90;;;6.40;;
21339;SDS011;10828;47.064;15.422;2022-08-25T02:57:06;10.60;;;5.90;;
21339;SDS011;10828;47.064;15.422;2022-08-25T02:59:32;12.93;;;6.90;;
21339;SDS011;10828;47.064;15.422;2022-08-25T03:01:59;13.40;;;6.20;;
21339;SDS011;10828;47.064;15.422;2022-08-25T03:04:25;10.83;;;6.33;;
21339;SDS011;10828;47.064;15.422;2022-08-25T03:06:51;9.93;;;6.83;;
21339;SDS011;10828;47.064;15.422;2022-08-25T03:09:17;14.30;;;6.80;;
21339;SDS011;10828;47.064;15.422;2022-08-25T03:11:43;12.97;;;6.50;;
21339;SDS011;10828;47.064;15.422;2022-08-25T03:14:12;11.97;;;7.03;;
21339;SDS011;10828;47.064;15.422;2022-08-25T03:16:38;15.10;;;6.83;;
21339;SDS011;10828;47.064;15.422;2022-08-25T03:19:05;14.10;;;7.60;;
21339;SDS011;10828;47.064;15.422;2022-08-25T03:21:31;14.13;;;6.67;;
21339;SDS011;10828;47.064;15.422;2022-08-25T03:23:57;11.67;;;6.77;;
21339;SDS011;10828;47.064;15.422;2022-08-25T03:26:23;15.23;;;6.93;;
21339;SDS011;10828;47.064;15.422;2022-08-25T03:29:08;14.87;;;8.00;;
21339;SDS011;10828;47.064;15.422;2022-08-25T03:31:34;20.47;;;7.37;;
21339;SDS011;10828;47.064;15.422;2022-08-25T03:34:00;14.03;;;6.63;;
21339;SDS011;10828;47.064;15.422;2022-08-25T03:36:27;12.93;;;6.93;;
21339;SDS011;10828;47.064;15.422;2022-08-25T03:38:53;15.73;;;7.30;;
21339;SDS011;10828;47.064;15.422;2022-08-25T03:41:20;14.70;;;7.13;;
21339;SDS011;10828;47.064;15.422;2022-08-25T03:43:47;21.10;;;6.73;;
21339;SDS011;10828;47.064;15.422;2022-08-25T03:46:22;15.73;;;6.47;;
21339;SDS011;10828;47.064;15.422;2022-08-25T03:48:49;15.13;;;6.70;;
21339;SDS011;10828;47.064;15.422;2022-08-25T03:51:24;12.73;;;5.57;;
21339;SDS011;10828;47.064;15.422;2022-08-25T03:53:50;15.53;;;5.47;;
21339;SDS011;10828;47.064;15.422;2022-08-25T03:56:23;14.83;;;5.80;;
21339;SDS011;10828;47.064;15.422;2022-08-25T03:58:51;11.73;;;5.30;;
21339;SDS011;10828;47.064;15.422;2022-08-25T04:01:19;14.77;;;6.53;;
21339;SDS011;10828;47.064;15.422;2022-08-25T04:03:45;17.73;;;6.90;;
21339;SDS011;10828;47.064;15.422;2022-08-25T04:06:12;15.47;;;5.83;;
21339;SDS011;10828;47.064;15.422;2022-08-25T04:08:38;21.33;;;7.20;;
21339;SDS011;10828;47.064;15.422;2022-08-25T04:11:15;19.00;;;6.33;;
21339;SDS011;10828;47.064;15.422;2022-08-25T04:13:42;11.73;;;6.23;;
21339;SDS011;10828;47.064;15.422;2022-08-25T04:16:18;12.93;;;5.80;;
21339;SDS011;10828;47.064;15.422;2022-08-25T04:21:39;17.80;;;6.13;;
21339;SDS011;10828;47.064;15.422;2022-08-25T04:24:05;12.67;;;5.80;;
21339;SDS011;10828;47.064;15.422;2022-08-25T04:29:06;14.80;;;5.63;;
21339;SDS011;10828;47.064;15.422;2022-08-25T04:31:34;14.07;;;6.60;;
21339;SDS011;10828;47.064;15.422;2022-08-25T04:34:00;13.50;;;5.73;;
21339;SDS011;10828;47.064;15.422;2022-08-25T04:36:27;13.63;;;5.83;;
21339;SDS011;10828;47.064;15.422;2022-08-25T04:38:53;10.87;;;5.17;;
21339;SDS011;10828;47.064;15.422;2022-08-25T04:41:20;11.03;;;6.27;;
21339;SDS011;10828;47.064;15.422;2022-08-25T04:43:47;13.67;;;7.03;;
21339;SDS011;10828;47.064;15.422;2022-08-25T04:46:27;9.83;;;5.60;;
21339;SDS011;10828;47.064;15.422;2022-08-25T04:48:54;13.07;;;6.20;;
21339;SDS011;10828;47.064;15.422;2022-08-25T04:51:22;15.13;;;5.93;;
21339;SDS011;10828;47.064;15.422;2022-08-25T04:56:25;14.57;;;6.37;;
21339;SDS011;10828;47.064;15.422;2022-08-25T04:59:10;13.03;;;6.30;;
21339;SDS011;10828;47.064;15.422;2022-08-25T05:01:43;19.13;;;7.37;;
21339;SDS011;10828;47.064;15.422;2022-08-25T05:04:11;10.33;;;5.37;;
21339;SDS011;10828;47.064;15.422;2022-08-25T05:06:38;12.83;;;5.80;;
21339;SDS011;10828;47.064;15.422;2022-08-25T05:09:05;11.83;;;6.17;;
21339;SDS011;10828;47.064;15.422;2022-08-25T05:11:31;12.13;;;5.70;;
21339;SDS011;10828;47.064;15.422;2022-08-25T05:13:59;14.77;;;5.43;;
21339;SDS011;10828;47.064;15.422;2022-08-25T05:16:25;15.97;;;6.30;;
21339;SDS011;10828;47.064;15.422;2022-08-25T05:18:52;15.03;;;6.37;;
21339;SDS011;10828;47.064;15.422;2022-08-25T05:21:21;15.90;;;6.00;;
21339;SDS011;10828;47.064;15.422;2022-08-25T05:23:48;19.50;;;6.60;;
21339;SDS011;10828;47.064;15.422;2022-08-25T05:26:15;15.50;;;6.47;;
21339;SDS011;10828;47.064;15.422;2022-08-25T05:28:42;15.40;;;6.33;;
21339;SDS011;10828;47.064;15.422;2022-08-25T05:31:09;15.63;;;6.07;;
21339;SDS011;10828;47.064;15.422;2022-08-25T05:33:36;22.13;;;7.13;;
21339;SDS011;10828;47.064;15.422;2022-08-25T05:36:03;14.77;;;6.07;;
21339;SDS011;10828;47.064;15.422;2022-08-25T05:38:31;15.40;;;6.60;;
21339;SDS011;10828;47.064;15.422;2022-08-25T05:40:57;18.53;;;6.67;;
21339;SDS011;10828;47.064;15.422;2022-08-25T05:43:24;14.70;;;7.00;;
21339;SDS011;10828;47.064;15.422;2022-08-25T05:45:52;12.33;;;6.07;;
21339;SDS011;10828;47.064;15.422;2022-08-25T05:48:18;20.33;;;6.87;;
21339;SDS011;10828;47.064;15.422;2022-08-25T05:50:54;11.03;;;5.80;;
21339;SDS011;10828;47.064;15.422;2022-08-25T05:53:20;16.63;;;7.07;;
21339;SDS011;10828;47.064;15.422;2022-08-25T05:55:47;15.10;;;6.40;;
21339;SDS011;10828;47.064;15.422;2022-08-25T05:58:13;18.53;;;6.83;;
21339;SDS011;10828;47.064;15.422;2022-08-25T06:00:39;13.50;;;6.40;;
21339;SDS011;10828;47.064;15.422;2022-08-25T06:03:05;16.20;;;6.23;;
21339;SDS011;10828;47.064;15.422;2022-08-25T06:05:31;13.63;;;6.13;;
21339;SDS011;10828;47.064;15.422;2022-08-25T06:07:57;13.63;;;5.63;;
21339;SDS011;10828;47.064;15.422;2022-08-25T06:10:23;13.77;;;6.47;;
21339;SDS011;10828;47.064;15.422;2022-08-25T06:12:50;13.47;;;6.03;;
21339;SDS011;10828;47.064;15.422;2022-08-25T06:15:19;19.30;;;6.40;;
21339;SDS011;10828;47.064;15.422;2022-08-25T06:17:46;18.73;;;7.20;;
21339;SDS011;10828;47.064;15.422;2022-08-25T06:20:14;14.53;;;6.50;;
21339;SDS011;10828;47.064;15.422;2022-08-25T06:22:40;15.13;;;6.90;;
21339;SDS011;10828;47.064;15.422;2022-08-25T06:25:07;17.47;;;7.43;;
21339;SDS011;10828;47.064;15.422;2022-08-25T06:27:33;15.13;;;6.70;;
21339;SDS011;10828;47.064;15.422;2022-08-25T06:30:00;19.80;;;7.07;;
21339;SDS011;10828;47.064;15.422;2022-08-25T06:32:31;18.47;;;6.17;;
21339;SDS011;10828;47.064;15.422;2022-08-25T06:34:57;26.70;;;7.47;;
21339;SDS011;10828;47.064;15.422;2022-08-25T06:37:30;16.37;;;7.33;;
21339;SDS011;10828;47.064;15.422;2022-08-25T06:39:56;18.77;;;6.67;;
21339;SDS011;10828;47.064;15.422;2022-08-25T06:42:22;21.23;;;6.23;;
21339;SDS011;10828;47.064;15.422;2022-08-25T06:44:48;15.63;;;6.27;;
21339;SDS011;10828;47.064;15.422;2022-08-25T06:47:15;13.93;;;6.27;;
21339;SDS011;10828;47.064;15.422;2022-08-25T06:49:42;10.20;;;5.43;;
21339;SDS011;10828;47.064;15.422;2022-08-25T06:52:09;14.03;;;5.60;;
21339;SDS011;10828;47.064;15.422;2022-08-25T06:54:35;11.20;;;5.17;;
21339;SDS011;10828;47.064;15.422;2022-08-25T06:57:01;19.03;;;5.50;;
21339;SDS011;10828;47.064;15.422;2022-08-25T06:59:28;17.23;;;5.93;;
21339;SDS011;10828;47.064;15.422;2022-08-25T07:01:54;16.57;;;6.63;;
21339;SDS011;10828;47.064;15.422;2022-08-25T07:04:20;21.10;;;6.10;;
21339;SDS011;10828;47.064;15.422;2022-08-25T07:06:46;15.53;;;7.00;;
21339;SDS011;10828;47.064;15.422;2022-08-25T07:09:12;17.80;;;6.03;;
21339;SDS011;10828;47.064;15.422;2022-08-25T07:11:42;16.20;;;6.40;;
21339;SDS011;10828;47.064;15.422;2022-08-25T07:14:09;12.00;;;6.23;;
21339;SDS011;10828;47.064;15.422;2022-08-25T07:16:36;13.93;;;5.77;;
21339;SDS011;10828;47.064;15.422;2022-08-25T07:19:11;15.63;;;6.70;;
21339;SDS011;10828;47.064;15.422;2022-08-25T07:21:38;13.37;;;6.53;;
21339;SDS011;10828;47.064;15.422;2022-08-25T07:24:06;11.37;;;6.63;;
21339;SDS011;10828;47.064;15.422;2022-08-25T07:26:33;15.30;;;6.83;;
21339;SDS011;10828;47.064;15.422;2022-08-25T07:29:00;12.70;;;6.93;;
21339;SDS011;10828;47.064;15.422;2022-08-25T07:31:26;15.97;;;7.10;;
21339;SDS011;10828;47.064;15.422;2022-08-25T07:34:00;17.50;;;7.60;;
21339;SDS011;10828;47.064;15.422;2022-08-25T07:36:45;14.80;;;6.37;;
21339;SDS011;10828;47.064;15.422;2022-08-25T07:39:11;17.90;;;7.47;;
21339;SDS011;10828;47.064;15.422;2022-08-25T07:41:39;12.47;;;7.10;;
21339;SDS011;10828;47.064;15.422;2022-08-25T07:44:05;15.90;;;8.03;;
21339;SDS011;10828;47.064;15.422;2022-08-25T07:46:32;24.13;;;8.17;;
21339;SDS011;10828;47.064;15.422;2022-08-25T07:48:58;15.43;;;7.90;;
21339;SDS011;10828;47.064;15.422;2022-08-25T07:51:30;29.43;;;8.00;;
21339;SDS011;10828;47.064;15.422;2022-08-25T07:53:56;19.10;;;7.87;;
21339;SDS011;10828;47.064;15.422;2022-08-25T07:56:22;26.27;;;7.77;;
21339;SDS011;10828;47.064;15.422;2022-08-25T07:58:48;25.17;;;9.20;;
21339;SDS011;10828;47.064;15.422;2022-08-25T08:01:18;18.87;;;8.57;;
21339;SDS011;10828;47.064;15.422;2022-08-25T08:03:47;21.33;;;8.47;;
21339;SDS011;10828;47.064;15.422;2022-08-25T08:06:14;20.70;;;8.30;;
21339;SDS011;10828;47.064;15.422;2022-08-25T08:08:42;16.50;;;8.00;;
21339;SDS011;10828;47.064;15.422;2022-08-25T08:11:21;18.07;;;8.27;;
21339;SDS011;10828;47.064;15.422;2022-08-25T08:13:48;20.97;;;8.40;;
21339;SDS011;10828;47.064;15.422;2022-08-25T08:16:15;19.90;;;8.37;;
21339;SDS011;10828;47.064;15.422;2022-08-25T08:18:43;20.10;;;8.60;;
21339;SDS011;10828;47.064;15.422;2022-08-25T08:21:13;29.47;;;9.07;;
21339;SDS011;10828;47.064;15.422;2022-08-25T08:23:46;19.00;;;8.87;;
21339;SDS011;10828;47.064;15.422;2022-08-25T08:26:12;15.73;;;8.50;;
21339;SDS011;10828;47.064;15.422;2022-08-25T08:28:38;19.93;;;9.07;;
21339;SDS011;10828;47.064;15.422;2022-08-25T08:31:04;18.77;;;8.17;;
21339;SDS011;10828;47.064;15.422;2022-08-25T08:33:30;22.63;;;8.47;;
21339;SDS011;10828;47.064;15.422;2022-08-25T08:35:58;20.03;;;9.00;;
21339;SDS011;10828;47.064;15.422;2022-08-25T08:38:25;17.07;;;8.50;;
21339;SDS011;10828;47.064;15.422;2022-08-25T08:41:42;21.87;;;8.47;;
21339;SDS011;10828;47.064;15.422;2022-08-25T08:44:02;17.03;;;7.97;;
21339;SDS011;10828;47.064;15.422;2022-08-25T08:46:33;23.03;;;9.13;;
21339;SDS011;10828;47.064;15.422;2022-08-25T08:49:02;16.87;;;8.53;;
21339;SDS011;10828;47.064;15.422;2022-08-25T08:51:32;20.77;;;8.13;;
21339;SDS011;10828;47.064;15.422;2022-08-25T08:56:40;19.90;;;8.83;;
21339;SDS011;10828;47.064;15.422;2022-08-25T08:59:12;18.47;;;8.50;;
21339;SDS011;10828;47.064;15.422;2022-08-25T09:01:54;22.90;;;10.00;;
21339;SDS011;10828;47.064;15.422;2022-08-25T09:04:37;18.80;;;9.07;;
21339;SDS011;10828;47.064;15.422;2022-08-25T09:07:10;21.47;;;9.23;;
21339;SDS011;10828;47.064;15.422;2022-08-25T09:09:36;27.33;;;9.23;;
21339;SDS011;10828;47.064;15.422;2022-08-25T09:22:43;24.73;;;9.60;;
21339;SDS011;10828;47.064;15.422;2022-08-25T09:30:19;21.67;;;9.70;;
21339;SDS011;10828;47.064;15.422;2022-08-25T09:32:46;27.80;;;9.57;;
21339;SDS011;10828;47.064;15.422;2022-08-25T09:35:26;27.63;;;9.73;;
21339;SDS011;10828;47.064;15.422;2022-08-25T09:37:56;24.47;;;8.57;;
21339;SDS011;10828;47.064;15.422;2022-08-25T09:40:22;19.60;;;9.27;;
21339;SDS011;10828;47.064;15.422;2022-08-25T09:42:50;20.73;;;9.50;;
21339;SDS011;10828;47.064;15.422;2022-08-25T09:45:29;20.27;;;8.60;;
21339;SDS011;10828;47.064;15.422;2022-08-25T09:47:56;25.20;;;9.90;;
21339;SDS011;10828;47.064;15.422;2022-08-25T09:50:22;25.60;;;9.37;;
21339;SDS011;10828;47.064;15.422;2022-08-25T09:52:48;27.33;;;9.87;;
21339;SDS011;10828;47.064;15.422;2022-08-25T09:55:19;22.87;;;9.40;;
21339;SDS011;10828;47.064;15.422;2022-08-25T09:57:48;19.23;;;9.00;;
21339;SDS011;10828;47.064;15.422;2022-08-25T10:05:27;22.87;;;8.60;;
21339;SDS011;10828;47.064;15.422;2022-08-25T10:07:59;24.70;;;8.87;;
21339;SDS011;10828;47.064;15.422;2022-08-25T10:10:28;19.67;;;9.07;;
21339;SDS011;10828;47.064;15.422;2022-08-25T10:12:54;23.80;;;8.37;;
21339;SDS011;10828;47.064;15.422;2022-08-25T10:17:49;25.03;;;9.57;;
21339;SDS011;10828;47.064;15.422;2022-08-25T10:20:18;21.43;;;8.67;;
21339;SDS011;10828;47.064;15.422;2022-08-25T10:22:44;24.77;;;8.43;;
21339;SDS011;10828;47.064;15.422;2022-08-25T10:25:12;23.23;;;9.10;;
21339;SDS011;10828;47.064;15.422;2022-08-25T10:35:54;19.97;;;9.33;;
21339;SDS011;10828;47.064;15.422;2022-08-25T10:41:10;19.23;;;8.80;;
21339;SDS011;10828;47.064;15.422;2022-08-25T10:43:48;16.93;;;8.30;;
21339;SDS011;10828;47.064;15.422;2022-08-25T10:46:19;19.97;;;9.80;;
21339;SDS011;10828;47.064;15.422;2022-08-25T10:54:06;17.13;;;8.53;;
21339;SDS011;10828;47.064;15.422;2022-08-25T10:56:37;20.73;;;8.17;;
21339;SDS011;10828;47.064;15.422;2022-08-25T11:04:14;23.57;;;9.23;;
21339;SDS011;10828;47.064;15.422;2022-08-25T11:06:46;23.13;;;7.97;;
21339;SDS011;10828;47.064;15.422;2022-08-25T11:09:15;21.37;;;8.77;;
21339;SDS011;10828;47.064;15.422;2022-08-25T11:14:20;17.67;;;8.50;;
21339;SDS011;10828;47.064;15.422;2022-08-25T11:16:51;14.37;;;7.80;;
21339;SDS011;10828;47.064;15.422;2022-08-25T11:21:49;14.17;;;6.50;;
21339;SDS011;10828;47.064;15.422;2022-08-25T11:26:52;13.83;;;7.10;;
21339;SDS011;10828;47.064;15.422;2022-08-25T11:29:20;19.70;;;7.80;;
21339;SDS011;10828;47.064;15.422;2022-08-25T11:31:48;21.07;;;7.53;;
21339;SDS011;10828;47.064;15.422;2022-08-25T11:34:21;16.93;;;7.57;;
21339;SDS011;10828;47.064;15.422;2022-08-25T11:36:48;13.97;;;7.33;;
21339;SDS011;10828;47.064;15.422;2022-08-25T11:39:19;25.43;;;7.87;;
21339;SDS011;10828;47.064;15.422;2022-08-25T11:42:07;17.47;;;7.40;;
21339;SDS011;10828;47.064;15.422;2022-08-25T11:49:48;16.60;;;7.43;;
21339;SDS011;10828;47.064;15.422;2022-08-25T11:55:06;16.50;;;7.00;;
21339;SDS011;10828;47.064;15.422;2022-08-25T11:57:35;15.10;;;7.23;;
21339;SDS011;10828;47.064;15.422;2022-08-25T12:00:06;13.38;;;6.80;;
21339;SDS011;10828;47.064;15.422;2022-08-25T12:02:46;17.42;;;7.68;;
21339;SDS011;10828;47.064;15.422;2022-08-25T12:11:17;14.55;;;7.40;;
21339;SDS011;10828;47.064;15.422;2022-08-25T12:13:40;18.42;;;7.13;;
21339;SDS011;10828;47.064;15.422;2022-08-25T12:16:06;18.88;;;6.90;;
21339;SDS011;10828;47.064;15.422;2022-08-25T12:23:35;17.35;;;7.40;;
21339;SDS011;10828;47.064;15.422;2022-08-25T12:26:03;13.20;;;6.50;;
21339;SDS011;10828;47.064;15.422;2022-08-25T12:28:40;14.52;;;6.40;;
21339;SDS011;10828;47.064;15.422;2022-08-25T12:31:37;13.88;;;6.43;;
21339;SDS011;10828;47.064;15.422;2022-08-25T12:33:59;13.23;;;6.90;;
21339;SDS011;10828;47.064;15.422;2022-08-25T12:36:30;15.43;;;6.60;;
21339;SDS011;10828;47.064;15.422;2022-08-25T12:39:17;13.18;;;6.53;;
21339;SDS011;10828;47.064;15.422;2022-08-25T12:41:54;12.57;;;6.45;;
21339;SDS011;10828;47.064;15.422;2022-08-25T12:44:37;18.50;;;7.45;;
21339;SDS011;10828;47.064;15.422;2022-08-25T12:49:45;18.25;;;7.00;;
21339;SDS011;10828;47.064;15.422;2022-08-25T12:52:14;21.02;;;7.90;;
21339;SDS011;10828;47.064;15.422;2022-08-25T12:55:02;19.42;;;6.95;;
21339;SDS011;10828;47.064;15.422;2022-08-25T12:57:41;13.88;;;6.57;;
21339;SDS011;10828;47.064;15.422;2022-08-25T13:16:18;18.40;;;7.13;;
21339;SDS011;10828;47.064;15.422;2022-08-25T13:18:45;14.65;;;6.15;;
21339;SDS011;10828;47.064;15.422;2022-08-25T13:21:15;14.65;;;6.35;;
21339;SDS011;10828;47.064;15.422;2022-08-25T13:23:43;14.43;;;6.00;;
21339;SDS011;10828;47.064;15.422;2022-08-25T13:26:14;15.32;;;6.50;;
21339;SDS011;10828;47.064;15.422;2022-08-25T13:28:41;15.90;;;6.65;;
21339;SDS011;10828;47.064;15.422;2022-08-25T13:31:12;16.25;;;6.45;;
21339;SDS011;10828;47.064;15.422;2022-08-25T13:33:45;13.13;;;6.22;;
21339;SDS011;10828;47.064;15.422;2022-08-25T13:36:15;18.83;;;6.47;;
21339;SDS011;10828;47.064;15.422;2022-08-25T13:39:09;16.05;;;6.35;;
21339;SDS011;10828;47.064;15.422;2022-08-25T13:41:37;14.30;;;6.10;;
21339;SDS011;10828;47.064;15.422;2022-08-25T13:44:10;15.18;;;6.45;;
21339;SDS011;10828;47.064;15.422;2022-08-25T13:46:36;16.70;;;6.15;;
21339;SDS011;10828;47.064;15.422;2022-08-25T13:49:04;17.00;;;6.45;;
21339;SDS011;10828;47.064;15.422;2022-08-25T13:51:30;13.63;;;5.80;;
21339;SDS011;10828;47.064;15.422;2022-08-25T13:54:00;16.65;;;6.47;;
21339;SDS011;10828;47.064;15.422;2022-08-25T13:58:53;16.05;;;5.78;;
21339;SDS011;10828;47.064;15.422;2022-08-25T14:01:24;14.98;;;6.10;;
21339;SDS011;10828;47.064;15.422;2022-08-25T14:03:51;13.68;;;6.68;;
21339;SDS011;10828;47.064;15.422;2022-08-25T14:06:20;17.45;;;6.53;;
21339;SDS011;10828;47.064;15.422;2022-08-25T14:11:32;15.40;;;6.18;;
21339;SDS011;10828;47.064;15.422;2022-08-25T14:16:50;14.43;;;6.68;;
21339;SDS011;10828;47.064;15.422;2022-08-25T14:19:17;14.48;;;6.53;;
21339;SDS011;10828;47.064;15.422;2022-08-25T14:21:57;20.98;;;6.63;;
21339;SDS011;10828;47.064;15.422;2022-08-25T14:24:26;19.17;;;6.40;;
21339;SDS011;10828;47.064;15.422;2022-08-25T14:26:52;13.75;;;6.32;;
21339;SDS011;10828;47.064;15.422;2022-08-25T14:29:20;13.57;;;5.88;;
21339;SDS011;10828;47.064;15.422;2022-08-25T14:31:47;11.77;;;5.72;;
21339;SDS011;10828;47.064;15.422;2022-08-25T14:34:21;20.92;;;6.25;;
21339;SDS011;10828;47.064;15.422;2022-08-25T14:36:48;13.18;;;5.80;;
21339;SDS011;10828;47.064;15.422;2022-08-25T14:39:15;14.88;;;5.35;;
21339;SDS011;10828;47.064;15.422;2022-08-25T14:41:42;11.88;;;5.90;;
21339;SDS011;10828;47.064;15.422;2022-08-25T14:44:10;15.73;;;5.93;;
21339;SDS011;10828;47.064;15.422;2022-08-25T14:46:37;13.70;;;6.00;;
21339;SDS011;10828;47.064;15.422;2022-08-25T14:49:08;14.82;;;5.60;;
21339;SDS011;10828;47.064;15.422;2022-08-25T14:51:35;13.23;;;5.70;;
21339;SDS011;10828;47.064;15.422;2022-08-25T14:54:04;15.68;;;6.15;;
21339;SDS011;10828;47.064;15.422;2022-08-25T14:56:31;16.88;;;5.90;;
21339;SDS011;10828;47.064;15.422;2022-08-25T14:58:58;15.43;;;5.78;;
21339;SDS011;10828;47.064;15.422;2022-08-25T15:01:24;11.65;;;5.68;;
21339;SDS011;10828;47.064;15.422;2022-08-25T15:03:51;15.85;;;5.85;;
21339;SDS011;10828;47.064;15.422;2022-08-25T15:06:18;12.43;;;6.07;;
21339;SDS011;10828;47.064;15.422;2022-08-25T15:08:44;14.40;;;5.75;;
21339;SDS011;10828;47.064;15.422;2022-08-25T15:11:30;13.13;;;5.72;;
21339;SDS011;10828;47.064;15.422;2022-08-25T15:13:56;17.20;;;6.03;;
21339;SDS011;10828;47.064;15.422;2022-08-25T15:18:54;13.88;;;6.53;;
21339;SDS011;10828;47.064;15.422;2022-08-25T15:21:20;16.48;;;5.93;;
21339;SDS011;10828;47.064;15.422;2022-08-25T15:23:47;16.75;;;5.85;;
21339;SDS011;10828;47.064;15.422;2022-08-25T15:26:13;21.20;;;6.03;;
21339;SDS011;10828;47.064;15.422;2022-08-25T15:28:48;13.23;;;5.53;;
21339;SDS011;10828;47.064;15.422;2022-08-25T15:31:15;14.18;;;5.95;;
21339;SDS011;10828;47.064;15.422;2022-08-25T15:33:41;12.73;;;5.65;;
21339;SDS011;10828;47.064;15.422;2022-08-25T15:36:08;14.15;;;5.05;;
21339;SDS011;10828;47.064;15.422;2022-08-25T15:38:35;9.73;;;5.28;;
21339;SDS011;10828;47.064;15.422;2022-08-25T15:41:01;16.08;;;5.25;;
21339;SDS011;10828;47.064;15.422;2022-08-25T15:43:28;13.90;;;5.70;;
21339;SDS011;10828;47.064;15.422;2022-08-25T15:45:56;13.73;;;5.47;;
21339;SDS011;10828;47.064;15.422;2022-08-25T15:48:22;17.83;;;5.60;;
21339;SDS011;10828;47.064;15.422;2022-08-25T15:50:52;12.50;;;5.57;;
21339;SDS011;10828;47.064;15.422;2022-08-25T15:53:25;16.33;;;6.30;;
21339;SDS011;10828;47.064;15.422;2022-08-25T15:55:52;17.45;;;5.75;;
21339;SDS011;10828;47.064;15.422;2022-08-25T15:58:26;14.32;;;5.25;;
21339;SDS011;10828;47.064;15.422;2022-08-25T16:00:52;11.70;;;5.85;;
21339;SDS011;10828;47.064;15.422;2022-08-25T16:03:20;11.15;;;5.30;;
21339;SDS011;10828;47.064;15.422;2022-08-25T16:05:46;18.85;;;6.75;;
21339;SDS011;10828;47.064;15.422;2022-08-25T16:08:12;12.25;;;5.45;;
21339;SDS011;10828;47.064;15.422;2022-08-25T16:10:41;14.10;;;5.78;;
21339;SDS011;10828;47.064;15.422;2022-08-25T16:13:07;19.77;;;6.20;;
21339;SDS011;10828;47.064;15.422;2022-08-25T16:15:34;16.58;;;6.03;;
21339;SDS011;10828;47.064;15.422;2022-08-25T16:18:02;13.50;;;6.00;;
21339;SDS011;10828;47.064;15.422;2022-08-25T16:20:29;12.05;;;5.68;;
21339;SDS011;10828;47.064;15.422;2022-08-25T16:22:57;17.45;;;6.00;;
21339;SDS011;10828;47.064;15.422;2022-08-25T16:25:25;14.00;;;6.47;;
21339;SDS011;10828;47.064;15.422;2022-08-25T16:27:51;16.30;;;7.05;;